Time;durP1;ratioP1;P1;durP2;ratioP2;P2;SDS_P1;SDS_P2;PMS_P1;PMS_P2;Temp;Humidity;BMP_temperature;BMP_pressure;BME280_temperature;BME280_humidity;BME280_pressure;Samples;Min_cycle;Max_cycle;Signal;HPM_P1;HPM_P2
2021/11/03 00:00:38;;;;;;;0.10;0.10;;;;;;;22.31;35.06;100127.34;4992780;28;20046;-38
2021/11/03 00:03:05;;;;;;;0.10;0.10;;;;;;;22.26;35.29;100121.59;4995589;28;20046;-39
2021/11/03 00:05:31;;;;;;;0.00;0.00;;;;;;;22.35;34.86;100134.09;4972563;28;20568;-39
2021/11/03 00:07:57;;;;;;;0.10;0.10;;;;;;;22.34;35.06;100134.28;4973903;28;20105;-39
2021/11/03 00:10:23;;;;;;;0.00;0.00;;;;;;;22.42;35.09;100144.25;4973729;28;20051;-39
2021/11/03 00:12:49;;;;;;;0.10;0.10;;;;;;;22.38;35.15;100136.44;4982359;28;20217;-38
2021/11/03 00:15:16;;;;;;;0.10;0.10;;;;;;;22.44;35.37;100147.63;4993158;28;20061;-39
2021/11/03 00:17:43;;;;;;;0.10;0.10;;;;;;;22.42;35.29;100138.75;4991759;28;20108;-38
2021/11/03 00:20:10;;;;;;;0.10;0.10;;;;;;;22.41;35.22;100139.78;4991805;28;20422;-39
2021/11/03 00:22:36;;;;;;;0.10;0.10;;;;;;;22.46;35.45;100142.75;4992198;28;20093;-39
2021/11/03 00:25:03;;;;;;;0.10;0.10;;;;;;;22.46;35.07;100140.00;4991632;28;20048;-38
2021/11/03 00:27:29;;;;;;;0.10;0.10;;;;;;;22.46;35.48;100146.34;4992488;28;20058;-39
2021/11/03 00:29:55;;;;;;;0.10;0.10;;;;;;;22.38;35.43;100130.91;4992885;28;20458;-39
2021/11/03 00:32:20;;;;;;;0.10;0.10;;;;;;;22.41;35.21;100137.03;4991316;28;20266;-39
2021/11/03 00:34:46;;;;;;;0.10;0.10;;;;;;;22.32;35.60;100120.75;4992584;28;20133;-38
2021/11/03 00:37:14;;;;;;;0.10;0.10;;;;;;;22.41;35.36;100135.13;4991164;28;20061;-38
2021/11/03 00:39:41;;;;;;;0.10;0.10;;;;;;;22.46;35.39;100140.00;4991322;28;20046;-39
2021/11/03 00:42:07;;;;;;;0.00;0.00;;;;;;;22.46;35.28;100134.50;4991978;28;20176;-39
2021/11/03 00:44:33;;;;;;;0.10;0.10;;;;;;;22.48;35.66;100154.41;4991355;28;20093;-38
2021/11/03 00:46:59;;;;;;;0.10;0.10;;;;;;;22.45;35.28;100139.16;4991006;28;20161;-39
2021/11/03 00:49:25;;;;;;;0.10;0.10;;;;;;;22.48;35.20;100137.88;4992440;28;20046;-39
2021/11/03 00:51:51;;;;;;;0.10;0.10;;;;;;;22.49;35.70;100143.19;4986937;28;20053;-37
2021/11/03 00:54:17;;;;;;;0.10;0.10;;;;;;;22.42;35.25;100122.22;4971643;28;20035;-38
2021/11/03 00:56:46;;;;;;;0.10;0.10;;;;;;;22.48;35.64;100133.19;4971554;28;20198;-38
2021/11/03 00:59:12;;;;;;;0.10;0.10;;;;;;;22.48;35.25;100132.34;4971362;28;20101;-38
2021/11/03 01:01:38;;;;;;;0.10;0.10;;;;;;;22.48;35.52;100137.88;4984043;28;20041;-38
2021/11/03 01:04:04;;;;;;;0.10;0.10;;;;;;;22.46;35.64;100129.00;5010300;28;20049;-38
2021/11/03 01:06:30;;;;;;;0.10;0.10;;;;;;;22.46;35.61;100131.75;5010419;28;20041;-38
2021/11/03 01:08:57;;;;;;;0.10;0.10;;;;;;;22.43;35.49;100121.16;5010311;28;20050;-37
2021/11/03 01:11:23;;;;;;;0.10;0.10;;;;;;;22.41;35.58;100121.34;5005259;28;20489;-35
2021/11/03 01:13:49;;;;;;;0.10;0.10;;;;;;;22.46;35.79;100129.00;4991999;28;20195;-37
2021/11/03 01:16:15;;;;;;;0.00;0.00;;;;;;;22.46;35.59;100123.47;4992075;28;20494;-38
2021/11/03 01:18:40;;;;;;;0.10;0.10;;;;;;;22.47;35.87;100125.16;4990672;28;20150;-37
2021/11/03 01:21:07;;;;;;;0.10;0.10;;;;;;;22.44;35.79;100111.81;4990832;28;20050;-37
2021/11/03 01:23:33;;;;;;;0.10;0.10;;;;;;;22.45;35.68;100119.00;4972595;28;20247;-37
2021/11/03 01:25:59;;;;;;;0.10;0.10;;;;;;;22.46;35.80;100120.72;4971035;28;20493;-37
2021/11/03 01:28:25;;;;;;;0.10;0.10;;;;;;;22.45;35.82;100119.88;4972191;28;20046;-37
2021/11/03 01:30:53;;;;;;;0.10;0.10;;;;;;;22.45;35.34;100114.38;4970681;28;20057;-37
2021/11/03 01:33:20;;;;;;;0.10;0.10;;;;;;;22.46;35.64;100112.47;4988187;28;20050;-38
2021/11/03 01:35:47;;;;;;;0.10;0.10;;;;;;;22.46;35.72;100117.97;4990414;28;20042;-38
2021/11/03 01:38:14;;;;;;;0.00;0.00;;;;;;;22.46;35.76;100107.78;4990020;28;20054;-38
2021/11/03 01:40:43;;;;;;;0.10;0.10;;;;;;;22.45;35.80;100107.97;4989910;28;20050;-38
2021/11/03 01:43:16;;;;;;;0.10;0.10;;;;;;;22.46;35.43;100104.19;4986120;28;20621;-38
2021/11/03 01:45:42;;;;;;;0.10;0.10;;;;;;;22.47;35.60;100105.88;4970799;28;20042;-38
2021/11/03 01:48:09;;;;;;;0.10;0.10;;;;;;;22.39;35.79;100095.94;4970462;28;20047;-38
2021/11/03 01:50:44;;;;;;;0.10;0.10;;;;;;;22.46;35.92;100112.47;4970277;28;20419;-38
2021/11/03 01:53:22;;;;;;;0.17;0.10;;;;;;;22.46;35.62;100096.75;4970661;28;20418;-40
2021/11/03 01:55:53;;;;;;;0.10;0.10;;;;;;;22.32;35.80;100078.59;4954781;28;20050;-37
2021/11/03 01:58:24;;;;;;;0.10;0.10;;;;;;;22.45;35.93;100099.72;4970822;28;20058;-38
2021/11/03 02:00:52;;;;;;;0.10;0.10;;;;;;;22.44;35.75;100092.53;4970510;28;20042;-38
2021/11/03 02:03:20;;;;;;;0.00;0.00;;;;;;;22.46;35.95;100091.25;4970900;28;20498;-38
2021/11/03 02:05:50;;;;;;;0.10;0.10;;;;;;;22.47;36.09;100092.09;4973727;28;20044;-38
2021/11/03 02:08:17;;;;;;;0.10;0.10;;;;;;;22.46;36.15;100085.75;5005850;28;20399;-38
2021/11/03 02:10:43;;;;;;;0.10;0.10;;;;;;;22.44;35.86;100087.84;4989624;28;20043;-38
2021/11/03 02:13:11;;;;;;;0.00;0.00;;;;;;;22.49;35.89;100087.22;4988847;28;20406;-38
2021/11/03 02:15:39;;;;;;;0.10;0.10;;;;;;;22.48;36.06;100082.75;4973409;28;20129;-38
2021/11/03 02:18:06;;;;;;;0.00;0.00;;;;;;;22.48;35.89;100082.75;4989598;28;20133;-38
2021/11/03 02:20:33;;;;;;;0.10;0.10;;;;;;;22.50;36.06;100083.41;4973563;28;20204;-38
2021/11/03 02:23:04;;;;;;;0.00;0.00;;;;;;;22.50;36.08;100087.00;4975550;28;20141;-38
2021/11/03 02:25:37;;;;;;;0.10;0.10;;;;;;;22.51;35.91;100082.31;4969972;28;20049;-38
2021/11/03 02:28:04;;;;;;;0.00;0.00;;;;;;;22.49;36.37;100084.47;4953844;28;20051;-38
2021/11/03 02:30:30;;;;;;;0.10;0.10;;;;;;;22.49;36.12;100084.47;4985893;28;20053;-39
2021/11/03 02:33:00;;;;;;;0.10;0.10;;;;;;;22.52;36.25;100089.50;4983428;28;20050;-38
2021/11/03 02:35:27;;;;;;;0.10;0.10;;;;;;;22.51;36.17;100074.06;4991190;28;20166;-38
2021/11/03 02:37:56;;;;;;;0.03;0.03;;;;;;;22.50;36.08;100081.47;4989052;28;20085;-38
2021/11/03 02:40:49;;;;;;;0.00;0.00;;;;;;;22.37;36.20;100054.81;4989436;28;20042;-38
2021/11/03 02:43:22;;;;;;;0.10;0.10;;;;;;;22.53;35.92;100082.97;4972504;28;20061;-37
2021/11/03 02:45:54;;;;;;;0.10;0.10;;;;;;;22.53;36.53;100081.06;4989393;28;20044;-38
2021/11/03 02:48:25;;;;;;;0.10;0.10;;;;;;;22.53;36.18;100077.44;4989293;28;20046;-38
2021/11/03 02:50:56;;;;;;;0.10;0.10;;;;;;;22.53;36.22;100074.69;4990702;28;20082;-38
2021/11/03 02:53:23;;;;;;;0.10;0.10;;;;;;;22.53;36.44;100077.44;4980751;28;20078;-38
2021/11/03 02:55:49;;;;;;;0.10;0.10;;;;;;;22.53;36.66;100069.19;4969929;28;20095;-38
2021/11/03 02:58:15;;;;;;;0.10;0.10;;;;;;;22.54;36.29;100076.38;4969800;28;20189;-38
2021/11/03 03:00:41;;;;;;;0.00;0.00;;;;;;;22.52;36.44;100067.47;4969869;28;20076;-38
2021/11/03 03:03:07;;;;;;;0.10;0.10;;;;;;;22.47;36.42;100056.28;4981670;28;20072;-38
2021/11/03 03:05:33;;;;;;;0.10;0.10;;;;;;;22.44;36.15;100054.78;4989229;28;20062;-37
2021/11/03 03:07:59;;;;;;;0.00;0.00;;;;;;;22.53;36.15;100060.91;4989003;28;20046;-38
2021/11/03 03:10:25;;;;;;;0.10;0.10;;;;;;;22.53;36.11;100070.03;4989229;28;20041;-39
2021/11/03 03:12:51;;;;;;;0.10;0.10;;;;;;;22.53;35.95;100063.69;4988377;28;20081;-38
2021/11/03 03:15:17;;;;;;;0.10;0.10;;;;;;;22.38;36.12;100044.66;4989217;28;20042;-37
2021/11/03 03:17:43;;;;;;;0.10;0.10;;;;;;;22.51;36.31;100063.03;4989159;28;20057;-38
2021/11/03 03:20:09;;;;;;;0.00;0.00;;;;;;;22.49;36.31;100051.41;4989117;28;20145;-37
2021/11/03 03:22:36;;;;;;;0.10;0.10;;;;;;;22.52;36.24;100050.94;4987974;28;20077;-37
2021/11/03 03:25:04;;;;;;;0.10;0.10;;;;;;;22.45;36.52;100045.50;4990421;28;20088;-38
2021/11/03 03:27:30;;;;;;;0.00;0.00;;;;;;;22.51;36.44;100035.47;4989751;28;20038;-38
2021/11/03 03:29:57;;;;;;;0.00;0.00;;;;;;;22.51;36.32;100038.22;4989072;28;20042;-38
2021/11/03 03:32:23;;;;;;;0.10;0.10;;;;;;;22.51;36.72;100038.22;4988738;28;20247;-38
2021/11/03 03:34:50;;;;;;;0.10;0.10;;;;;;;22.51;36.05;100041.00;4989643;28;20050;-37
2021/11/03 03:37:17;;;;;;;0.10;0.10;;;;;;;22.51;36.52;100043.75;4992433;28;20050;-39
2021/11/03 03:39:43;;;;;;;0.10;0.10;;;;;;;22.50;36.65;100036.56;4992457;28;20038;-39
2021/11/03 03:42:15;;;;;;;0.10;0.10;;;;;;;22.51;36.66;100038.22;4992816;28;20054;-38
2021/11/03 03:44:45;;;;;;;0.10;0.10;;;;;;;22.49;36.42;100030.19;4992114;28;20398;-39
2021/11/03 03:47:11;;;;;;;0.10;0.10;;;;;;;22.49;36.11;100034.88;4992103;28;20077;-39
2021/11/03 03:49:38;;;;;;;0.10;0.10;;;;;;;22.48;36.33;100034.00;4993302;28;20217;-39
2021/11/03 03:52:07;;;;;;;0.10;0.10;;;;;;;22.50;36.35;100033.81;4991240;28;20493;-38
2021/11/03 03:54:33;;;;;;;0.10;0.10;;;;;;;22.51;36.19;100032.72;4992113;28;20057;-38
2021/11/03 03:56:59;;;;;;;0.10;0.10;;;;;;;22.51;36.64;100032.72;4991881;28;20080;-39
2021/11/03 03:59:25;;;;;;;0.10;0.10;;;;;;;22.50;36.38;100025.53;4991952;28;20566;-38
2021/11/03 04:01:52;;;;;;;0.10;0.10;;;;;;;22.49;36.68;100029.34;4990924;28;20074;-38
2021/11/03 04:04:18;;;;;;;0.10;0.10;;;;;;;22.48;36.49;100022.13;4991856;28;20068;-38
2021/11/03 04:06:44;;;;;;;0.10;0.10;;;;;;;22.51;36.36;100032.72;4992703;28;20454;-38
2021/11/03 04:09:11;;;;;;;0.10;0.10;;;;;;;22.49;36.09;100030.19;4991707;28;20104;-38
2021/11/03 04:11:39;;;;;;;0.00;0.00;;;;;;;22.51;36.58;100032.72;4990721;28;20046;-37
2021/11/03 04:14:08;;;;;;;0.10;0.10;;;;;;;22.46;36.49;100025.13;4991797;28;20047;-39
2021/11/03 04:16:34;;;;;;;0.10;0.10;;;;;;;22.51;36.20;100027.22;4992608;28;20106;-39
2021/11/03 04:19:00;;;;;;;0.10;0.10;;;;;;;22.51;36.30;100029.97;4991463;28;20478;-39
2021/11/03 04:21:28;;;;;;;0.10;0.10;;;;;;;22.50;36.32;100031.88;4990938;28;20034;-37
2021/11/03 04:23:53;;;;;;;0.00;0.00;;;;;;;22.47;36.50;100040.59;4991411;28;20113;-39
2021/11/03 04:26:32;;;;;;;0.10;0.10;;;;;;;22.51;36.32;100043.75;4991465;28;20077;-38
2021/11/03 04:29:03;;;;;;;0.10;0.10;;;;;;;22.52;36.25;100048.19;4991237;28;20502;-39
2021/11/03 04:31:29;;;;;;;0.10;0.10;;;;;;;22.52;36.27;100046.28;4975060;28;20121;-39
2021/11/03 04:33:55;;;;;;;0.10;0.10;;;;;;;22.53;36.09;100047.13;4991395;28;20109;-39
2021/11/03 04:36:25;;;;;;;0.10;0.10;;;;;;;22.53;36.09;100052.66;4991296;28;20081;-39
2021/11/03 04:38:52;;;;;;;0.10;0.10;;;;;;;22.54;36.26;100054.34;4991132;28;20070;-37
2021/11/03 04:41:19;;;;;;;0.10;0.10;;;;;;;22.53;36.20;100063.69;4990447;28;20049;-39
2021/11/03 04:43:47;;;;;;;0.10;0.10;;;;;;;22.53;36.43;100059.00;4992752;28;20042;-40
2021/11/03 04:46:15;;;;;;;0.10;0.10;;;;;;;22.55;36.28;100056.03;4990878;28;20099;-39
2021/11/03 04:48:42;;;;;;;0.10;0.10;;;;;;;22.55;36.28;100050.50;4992375;28;20069;-39
2021/11/03 04:51:08;;;;;;;0.10;0.10;;;;;;;22.54;36.06;100059.84;4974049;28;20058;-39
2021/11/03 04:53:35;;;;;;;0.10;0.10;;;;;;;22.55;36.36;100061.53;4990818;28;20623;-39
2021/11/03 04:56:03;;;;;;;0.00;0.00;;;;;;;22.55;36.43;100050.50;4990997;28;20043;-39
2021/11/03 04:58:30;;;;;;;0.10;0.10;;;;;;;22.55;36.21;100067.03;4990382;28;20057;-39
2021/11/03 05:00:56;;;;;;;0.10;0.10;;;;;;;22.49;36.25;100045.91;4989419;28;20402;-38
2021/11/03 05:03:22;;;;;;;0.10;0.10;;;;;;;22.50;36.44;100047.56;4974218;28;20049;-38
2021/11/03 05:05:49;;;;;;;0.10;0.10;;;;;;;22.55;36.44;100051.34;4990373;28;20050;-38
2021/11/03 05:08:16;;;;;;;0.10;0.10;;;;;;;22.55;36.32;100051.34;4990055;28;20069;-39
2021/11/03 05:10:43;;;;;;;0.10;0.10;;;;;;;22.56;36.29;100065.97;4990085;28;20042;-39
2021/11/03 05:13:09;;;;;;;0.10;0.10;;;;;;;22.56;36.37;100052.19;4990392;28;20388;-39
2021/11/03 05:15:35;;;;;;;0.10;0.10;;;;;;;22.56;36.42;100057.69;4989988;28;20558;-39
2021/11/03 05:18:01;;;;;;;0.10;0.10;;;;;;;22.52;36.37;100050.94;4990257;28;20498;-39
2021/11/03 05:20:27;;;;;;;0.10;0.10;;;;;;;22.53;36.42;100060.91;4983843;28;20030;-38
2021/11/03 05:22:54;;;;;;;0.10;0.10;;;;;;;22.49;36.47;100056.91;4989920;28;20520;-39
2021/11/03 05:25:24;;;;;;;0.10;0.10;;;;;;;22.55;36.32;100065.13;4991741;28;20133;-39
2021/11/03 05:27:51;;;;;;;0.10;0.10;;;;;;;22.44;36.81;100056.72;4989779;28;20101;-36
2021/11/03 05:30:18;;;;;;;0.10;0.10;;;;;;;22.48;36.67;100055.19;4990673;28;20076;-35
2021/11/03 05:32:43;;;;;;;0.10;0.10;;;;;;;22.49;36.53;100062.44;4990444;28;20429;-34
2021/11/03 05:35:10;;;;;;;0.10;0.10;;;;;;;22.52;36.85;100059.22;4974111;28;20144;-34
2021/11/03 05:37:35;;;;;;;0.10;0.10;;;;;;;22.53;36.86;100052.66;4991766;28;20058;-33
2021/11/03 05:40:04;;;;;;;0.10;0.10;;;;;;;22.66;36.86;100095.81;4987139;28;20407;-18
2021/11/03 05:42:30;;;;;;;0.10;0.10;;;;;;;22.68;37.76;100097.31;4958971;28;20104;-17
2021/11/03 05:44:56;;;;;;;0.10;0.10;;;;;;;22.70;38.08;100092.41;4989075;28;20522;-20
2021/11/03 05:47:24;;;;;;;0.10;0.10;;;;;;;22.66;38.30;100096.66;4988110;28;20379;-19
2021/11/03 05:49:51;;;;;;;0.10;0.10;;;;;;;22.70;37.25;100103.44;4988112;28;20050;-20
2021/11/03 05:52:17;;;;;;;0.10;0.10;;;;;;;22.49;36.51;100067.94;4987725;28;20489;-19
2021/11/03 05:54:43;;;;;;;0.10;0.10;;;;;;;22.71;36.41;100104.31;4987849;28;20095;-20
2021/11/03 05:57:18;;;;;;;0.10;0.10;;;;;;;22.74;35.82;100099.16;4988265;28;20132;-18
2021/11/03 05:59:44;;;;;;;0.10;0.10;;;;;;;22.82;36.23;100095.34;4986943;28;20077;-20
2021/11/03 06:02:10;;;;;;;0.10;0.10;;;;;;;22.86;35.12;100097.41;4988062;28;20443;-19
2021/11/03 06:04:35;;;;;;;0.10;0.10;;;;;;;22.98;35.27;100113.28;4988134;28;20050;-19
2021/11/03 06:07:01;;;;;;;0.10;0.10;;;;;;;23.00;35.43;100097.34;4989446;28;20112;-18
2021/11/03 06:09:27;;;;;;;0.20;0.20;;;;;;;23.03;35.15;100096.91;4987239;28;20412;-17
2021/11/03 06:11:53;;;;;;;0.10;0.10;;;;;;;22.99;37.09;100079.13;4989655;28;20050;-16
2021/11/03 06:14:19;;;;;;;0.10;0.10;;;;;;;22.92;36.55;100089.34;4990887;28;20026;-16
2021/11/03 06:16:45;;;;;;;0.10;0.10;;;;;;;22.87;36.42;100092.75;4991313;28;20541;-18
2021/11/03 06:19:12;;;;;;;0.10;0.10;;;;;;;22.82;36.57;100081.56;4990280;28;20451;-17
2021/11/03 06:21:38;;;;;;;0.10;0.10;;;;;;;22.80;36.23;100089.19;4991371;28;20053;-18
2021/11/03 06:24:04;;;;;;;0.10;0.10;;;;;;;22.75;36.38;100089.00;4991590;28;20038;-18
2021/11/03 06:26:31;;;;;;;0.10;0.10;;;;;;;22.74;36.70;100077.09;4991165;28;20042;-18
2021/11/03 06:28:56;;;;;;;0.10;0.10;;;;;;;22.68;35.70;100066.97;4989971;28;20116;-17
2021/11/03 06:31:22;;;;;;;0.10;0.10;;;;;;;22.62;36.09;100057.66;4990200;28;20461;-19
2021/11/03 06:33:50;;;;;;;0.10;0.10;;;;;;;22.69;35.38;100079.69;4991280;28;20046;-18
2021/11/03 06:36:16;;;;;;;0.10;0.10;;;;;;;22.57;35.50;100070.44;4991083;28;20049;-18
2021/11/03 06:38:42;;;;;;;0.10;0.10;;;;;;;22.66;35.94;100079.28;4991296;28;20072;-20
2021/11/03 06:41:08;;;;;;;0.10;0.10;;;;;;;22.61;35.54;100077.19;4990713;28;20505;-18
2021/11/03 06:43:34;;;;;;;0.10;0.10;;;;;;;22.61;35.83;100071.69;4991325;28;20487;-18
2021/11/03 06:46:00;;;;;;;0.10;0.10;;;;;;;22.60;35.82;100076.34;4991054;28;20061;-16
2021/11/03 06:48:25;;;;;;;0.10;0.10;;;;;;;22.45;35.20;100053.75;4991034;28;20054;-18
2021/11/03 06:50:52;;;;;;;0.10;0.10;;;;;;;22.38;35.32;100045.50;4977880;28;20054;-19
2021/11/03 06:53:21;;;;;;;0.10;0.10;;;;;;;22.55;35.24;100067.03;4971434;28;20054;-19
2021/11/03 06:55:48;;;;;;;0.35;0.10;;;;;;;22.54;35.20;100059.84;4971702;28;20055;-18
2021/11/03 06:58:14;;;;;;;0.10;0.10;;;;;;;22.37;34.53;100046.56;4971106;28;20155;-17
2021/11/03 07:00:42;;;;;;;0.10;0.10;;;;;;;22.48;34.71;100056.03;4980076;28;20043;-15
2021/11/03 07:03:08;;;;;;;0.10;0.10;;;;;;;22.41;34.44;100051.63;4989469;28;20050;-17
2021/11/03 07:05:35;;;;;;;0.10;0.10;;;;;;;22.49;34.44;100057.75;4991088;28;20310;-18
2021/11/03 07:08:02;;;;;;;0.10;0.10;;;;;;;22.46;34.35;100057.34;4991319;28;20042;-17
2021/11/03 07:10:35;;;;;;;0.10;0.10;;;;;;;22.48;34.36;100055.19;4992053;28;20049;-17
2021/11/03 07:13:01;;;;;;;0.10;0.10;;;;;;;22.46;34.46;100055.44;5010144;28;20112;-19
2021/11/03 07:15:28;;;;;;;0.10;0.10;;;;;;;22.45;34.24;100055.63;4993267;28;20100;-17
2021/11/03 07:17:54;;;;;;;0.10;0.10;;;;;;;22.44;34.11;100064.97;4994239;28;20411;-16
2021/11/03 07:20:20;;;;;;;0.10;0.10;;;;;;;22.44;34.17;100059.47;4993966;28;20112;-17
2021/11/03 07:22:46;;;;;;;0.00;0.00;;;;;;;22.43;34.09;100063.28;4994763;28;20047;-17
2021/11/03 07:25:17;;;;;;;0.10;0.10;;;;;;;22.36;34.24;100047.63;4994607;28;20034;-16
2021/11/03 07:27:44;;;;;;;0.10;0.10;;;;;;;22.43;34.25;100049.50;4992835;28;20053;-17
2021/11/03 07:30:11;;;;;;;0.10;0.10;;;;;;;22.42;34.00;100072.63;4993549;28;20112;-17
2021/11/03 07:32:37;;;;;;;0.10;0.10;;;;;;;22.38;33.90;100056.53;4994461;28;20050;-17
2021/11/03 07:35:03;;;;;;;0.10;0.10;;;;;;;22.38;33.90;100067.56;4994025;28;20046;-17
2021/11/03 07:37:29;;;;;;;0.10;0.10;;;;;;;22.36;33.91;100063.31;4994217;28;20074;-18
2021/11/03 07:39:55;;;;;;;0.10;0.10;;;;;;;22.34;33.92;100054.41;4993549;28;20073;-17
2021/11/03 07:42:21;;;;;;;0.10;0.10;;;;;;;22.35;33.97;100056.97;4994118;28;20085;-19
2021/11/03 07:44:49;;;;;;;0.10;0.10;;;;;;;22.24;33.70;100024.59;4993063;28;20573;-17
2021/11/03 07:47:15;;;;;;;0.10;0.10;;;;;;;22.35;33.79;100029.41;4994174;28;20061;-17
2021/11/03 07:49:41;;;;;;;0.10;0.10;;;;;;;22.29;33.70;100033.03;4994030;28;20046;-20
2021/11/03 07:52:07;;;;;;;0.10;0.10;;;;;;;22.33;33.71;100041.72;4976717;28;20134;-19
2021/11/03 07:54:33;;;;;;;0.10;0.10;;;;;;;22.28;33.93;100028.59;4974395;28;20046;-18
2021/11/03 07:56:59;;;;;;;0.10;0.10;;;;;;;22.32;33.66;100029.84;4974374;28;20137;-19
2021/11/03 07:59:25;;;;;;;0.10;0.10;;;;;;;22.12;33.67;100005.13;4972773;28;20290;-18
2021/11/03 08:01:54;;;;;;;0.10;0.10;;;;;;;22.28;33.64;100028.59;4986688;28;20359;-17
2021/11/03 08:04:20;;;;;;;0.10;0.10;;;;;;;22.29;33.81;100027.53;4992448;28;20259;-18
2021/11/03 08:06:47;;;;;;;0.10;0.10;;;;;;;22.29;33.50;100035.78;4992426;28;20046;-20
2021/11/03 08:09:14;;;;;;;0.10;0.10;;;;;;;22.14;33.75;100016.78;4993522;28;20137;-16
2021/11/03 08:11:57;;;;;;;0.10;0.10;;;;;;;22.24;33.63;100021.84;4988433;28;20113;-16
2021/11/03 08:14:25;;;;;;;0.10;0.10;;;;;;;22.18;33.87;100028.22;4974255;28;20360;-19
2021/11/03 08:16:58;;;;;;;0.10;0.10;;;;;;;22.26;33.96;100041.72;4974019;28;20057;-19
2021/11/03 08:19:47;;;;;;;0.00;0.00;;;;;;;22.18;33.85;100033.72;4988913;28;20039;-18
2021/11/03 08:22:19;;;;;;;0.10;0.10;;;;;;;22.24;33.66;100043.88;4985011;28;20100;-17
2021/11/03 08:24:46;;;;;;;0.10;0.10;;;;;;;22.25;34.00;100050.22;4993838;28;20046;-18
2021/11/03 08:27:12;;;;;;;0.10;0.10;;;;;;;22.23;33.67;100058.72;4993195;28;20104;-17
2021/11/03 08:29:39;;;;;;;0.10;0.10;;;;;;;22.25;34.10;100062.09;4993287;28;20058;-17
2021/11/03 08:32:07;;;;;;;0.10;0.10;;;;;;;22.24;33.88;100048.53;4992530;28;20053;-16
2021/11/03 08:34:33;;;;;;;0.10;0.10;;;;;;;22.22;33.66;100040.47;4991724;28;20096;-18
2021/11/03 08:37:06;;;;;;;0.05;0.05;;;;;;;22.24;34.09;100029.25;4991654;28;20049;-18
2021/11/03 08:39:38;;;;;;;0.10;0.10;;;;;;;22.20;33.85;100026.09;4993046;28;20073;-19
2021/11/03 08:42:04;;;;;;;0.00;0.00;;;;;;;22.24;34.21;100026.50;4987843;28;20054;-18
2021/11/03 08:44:30;;;;;;;0.10;0.10;;;;;;;22.22;33.97;100015.69;4973213;28;20192;-19
2021/11/03 08:46:57;;;;;;;0.10;0.10;;;;;;;22.18;33.91;100006.19;4973548;28;20129;-18
2021/11/03 08:49:22;;;;;;;0.10;0.10;;;;;;;22.22;33.87;100012.94;4973028;28;20073;-18
2021/11/03 08:51:48;;;;;;;0.10;0.10;;;;;;;22.19;33.61;100002.34;4980232;28;20109;-21
2021/11/03 08:54:17;;;;;;;0.10;0.10;;;;;;;22.21;33.88;100005.75;4992557;28;20050;-18
2021/11/03 08:56:43;;;;;;;0.10;0.10;;;;;;;22.23;34.12;100008.25;4992525;28;20054;-18
2021/11/03 08:59:09;;;;;;;0.10;0.10;;;;;;;22.21;33.81;99988.38;4992617;28;20451;-20
2021/11/03 09:01:44;;;;;;;0.10;0.10;;;;;;;22.21;33.79;100004.91;4991913;28;20058;-18
2021/11/03 09:04:09;;;;;;;0.10;0.10;;;;;;;22.23;34.22;100000.88;4991336;28;20185;-18
2021/11/03 09:06:36;;;;;;;0.10;0.10;;;;;;;22.20;34.06;99983.94;4992443;28;20129;-19
2021/11/03 09:09:03;;;;;;;0.10;0.10;;;;;;;22.21;34.26;99989.22;4992374;28;20042;-18
2021/11/03 09:11:29;;;;;;;0.10;0.10;;;;;;;22.23;33.71;100003.63;4992452;28;20050;-18
2021/11/03 09:13:54;;;;;;;0.10;0.10;;;;;;;22.22;33.77;99990.91;4992271;28;20116;-18
2021/11/03 09:16:21;;;;;;;0.10;0.10;;;;;;;22.09;33.57;99985.44;4992155;28;20046;-18
2021/11/03 09:18:47;;;;;;;0.10;0.10;;;;;;;22.19;34.52;99980.31;4989562;28;20061;-18
2021/11/03 09:21:14;;;;;;;0.10;0.10;;;;;;;22.27;35.16;99988.34;4976131;28;20038;-22
2021/11/03 09:23:40;;;;;;;0.10;0.10;;;;;;;22.35;35.94;99990.00;4987954;28;20054;-20
2021/11/03 09:26:06;;;;;;;0.10;0.10;;;;;;;22.37;36.57;99990.63;4988145;28;20550;-20
2021/11/03 09:28:34;;;;;;;0.10;0.10;;;;;;;22.39;34.82;99981.06;4988470;28;20133;-22
2021/11/03 09:31:03;;;;;;;0.10;0.10;;;;;;;22.46;34.09;99969.19;4986953;28;20061;-22
2021/11/03 09:33:30;;;;;;;0.10;0.10;;;;;;;22.49;34.73;99969.59;4986810;28;20046;-21
2021/11/03 09:35:56;;;;;;;0.10;0.10;;;;;;;22.62;36.29;99974.16;4987348;28;20050;-20
2021/11/03 09:38:26;;;;;;;0.10;0.10;;;;;;;22.63;35.25;99971.19;4987266;28;20514;-26
2021/11/03 09:40:56;;;;;;;0.10;0.10;;;;;;;22.69;34.59;99974.94;4987451;28;20038;-27
2021/11/03 09:43:54;;;;;;;0.10;0.10;;;;;;;22.74;35.80;99966.00;4985577;28;20049;-26
2021/11/03 09:46:28;;;;;;;0.25;0.25;;;;;;;22.62;34.45;99949.34;4984979;28;20038;-28
2021/11/03 09:48:55;;;;;;;0.10;0.10;;;;;;;22.71;34.26;99983.03;4984010;28;20132;-25
2021/11/03 09:51:25;;;;;;;0.10;0.10;;;;;;;22.62;34.43;99947.44;4983928;28;20101;-27
2021/11/03 09:53:55;;;;;;;0.10;0.10;;;;;;;22.74;34.35;99966.84;4982883;28;20128;-29
2021/11/03 09:56:35;;;;;;;0.10;0.10;;;;;;;22.77;35.29;99965.56;4983249;28;20081;-27
2021/11/03 09:59:24;;;;;;;0.10;0.10;;;;;;;22.82;34.84;99963.00;4984240;28;20038;-26
2021/11/03 10:02:19;;;;;;;0.10;0.10;;;;;;;22.84;34.70;99978.22;4984576;28;20046;-24
2021/11/03 10:05:08;;;;;;;0.10;0.10;;;;;;;22.83;34.62;99976.56;4968865;28;20184;-26
2021/11/03 10:07:56;;;;;;;0.10;0.10;;;;;;;22.80;33.89;99982.50;4982579;28;20047;-28
2021/11/03 10:10:28;;;;;;;0.10;0.10;;;;;;;22.75;34.33;99971.31;4984635;28;20502;-27
2021/11/03 10:12:55;;;;;;;0.10;0.10;;;;;;;22.72;34.11;99991.06;4984830;28;20137;-27
2021/11/03 10:15:23;;;;;;;0.00;0.00;;;;;;;22.71;34.45;99972.84;4986427;28;20042;-28
2021/11/03 10:18:11;;;;;;;0.10;0.10;;;;;;;22.69;34.29;99974.94;4986318;28;20053;-29
2021/11/03 10:20:41;;;;;;;0.10;0.10;;;;;;;22.64;34.39;99961.00;4984219;28;20054;-28
2021/11/03 10:23:18;;;;;;;0.10;0.10;;;;;;;22.72;34.56;99966.25;4985289;28;20038;-27
2021/11/03 10:26:06;;;;;;;0.10;0.10;;;;;;;22.73;34.72;99965.16;4987508;28;20057;-26
2021/11/03 10:28:40;;;;;;;0.10;0.10;;;;;;;22.83;34.47;99954.50;4983681;28;20057;-26
2021/11/03 10:31:22;;;;;;;0.22;0.10;;;;;;;22.88;34.48;99951.06;4985829;28;20455;-29
2021/11/03 10:33:50;;;;;;;0.10;0.10;;;;;;;22.86;35.51;99947.69;4986366;28;20046;-27
2021/11/03 10:36:22;;;;;;;0.10;0.10;;;;;;;22.80;35.26;99938.41;4986312;28;20351;-29
2021/11/03 10:39:00;;;;;;;0.20;0.20;;;;;;;22.80;34.41;99938.41;4981034;28;20088;-23
2021/11/03 10:41:30;;;;;;;0.10;0.10;;;;;;;22.69;35.56;99941.88;4983835;28;20340;-27
2021/11/03 10:44:07;;;;;;;0.10;0.10;;;;;;;22.64;35.87;99927.94;4985948;28;20498;-28
2021/11/03 10:47:24;;;;;;;0.30;0.10;;;;;;;22.77;36.58;99916.78;4994594;28;20034;-27
2021/11/03 10:49:55;;;;;;;0.10;0.10;;;;;;;22.67;35.45;99902.69;4979555;28;20060;-27
2021/11/03 10:52:40;;;;;;;0.10;0.10;;;;;;;22.79;37.01;99919.34;4990666;28;20493;-31
2021/11/03 10:55:25;;;;;;;0.10;0.10;;;;;;;22.79;37.01;99914.66;4986874;28;20050;-26
2021/11/03 10:57:57;;;;;;;0.10;0.10;;;;;;;22.81;38.23;99917.19;4988492;28;20062;-29
2021/11/03 11:00:32;;;;;;;0.10;0.10;;;;;;;22.83;37.70;99907.63;4983967;28;20091;-26
2021/11/03 11:02:58;;;;;;;0.10;0.10;;;;;;;22.83;37.17;99915.06;5001916;28;20050;-29
2021/11/03 11:05:25;;;;;;;0.03;0.03;;;;;;;22.82;37.19;99911.47;4986923;28;20115;-29
2021/11/03 11:07:56;;;;;;;0.10;0.10;;;;;;;22.83;37.26;99899.34;4987983;28;20688;-30
2021/11/03 11:10:41;;;;;;;0.10;0.10;;;;;;;22.84;36.09;99912.06;5002299;28;20526;-27
2021/11/03 11:13:15;;;;;;;0.10;0.10;;;;;;;22.85;35.41;99897.22;4988409;28;20042;-32
2021/11/03 11:15:51;;;;;;;0.10;0.10;;;;;;;22.94;35.28;99910.75;4986621;28;20051;-27
2021/11/03 11:18:33;;;;;;;0.10;0.10;;;;;;;23.00;35.88;99899.69;4986175;28;20133;-29
2021/11/03 11:21:04;;;;;;;0.10;0.10;;;;;;;22.91;35.59;99880.84;4986762;28;20040;-27
2021/11/03 11:23:40;;;;;;;0.10;0.10;;;;;;;23.01;35.81;99900.50;5001874;28;20053;-27
2021/11/03 11:26:48;;;;;;;0.20;0.10;;;;;;;23.05;36.21;99890.72;4988172;28;20141;-24
2021/11/03 11:29:51;;;;;;;0.10;0.10;;;;;;;23.08;36.17;99891.09;4982656;28;20107;-29
2021/11/03 11:32:26;;;;;;;0.10;0.10;;;;;;;23.10;38.73;99888.09;4986305;28;20516;-27
2021/11/03 11:35:14;;;;;;;0.10;0.10;;;;;;;22.99;38.33;99875.06;4988466;28;20506;-26